Portada
METAR-TAF:

METAR-TAF

Aeroports :

Taylor County Airport

Medford, Wisconsin, Estats Units d'Amèrica

latitud: 45-06-04N, longitud: 090-18-12W, altitud: 448 m

Observació

L'informe es va fer fa 12 minuts, a les 07:55 UTC
Vent 9 kt del Nord-Oest amb ràfegues de 15 kt
Temperatura 2°C
Humitat 87%
Pressió 1016 hPa
Visibilitat: 16.1 km
Núvols disperses a una alçada de 2000 ft
Cel cobert a una alçada de 4400 ft

METAR: KMDZ 300755Z AUTO 32009G15KT 10SM SCT020 OVC044 02/00 A3001 RMK AO2 T00150000

Hora: 03:07 (08:07 UTC)


TAF: manca

Observacions i pronòstics meteorològics de més de 4000 aeroports (METAR i TAF).

Les estacions disponibles són els punts grocs i vermells al mapa.

Posi el ratolí al punt desitjat per veure el nom de l'estació.

Feu clic per veure les observacions i els pronòstics meteorològics.

Per canviar el mapa: feu clic els botons verds amb una creu de color negre per apropar; al botó verd amb un guió per allunyar la imatge; o en les fletxes verdes per a mapes adjacents.


METAR-TAF: